createdAt,value
2022-12-23T00:01:52.688Z,15.43
2022-12-23T00:04:45.065Z,15.46
2022-12-23T00:07:12.144Z,15.56
2022-12-23T00:09:38.972Z,15.56
2022-12-23T00:12:06.325Z,15.57
2022-12-23T00:14:33.055Z,15.60
2022-12-23T00:17:01.271Z,15.61
2022-12-23T00:19:29.072Z,15.60
2022-12-23T00:21:55.963Z,15.63
2022-12-23T00:24:22.944Z,15.70
2022-12-23T00:26:49.818Z,15.71
2022-12-23T00:29:16.875Z,15.71
2022-12-23T00:31:43.630Z,15.70
2022-12-23T00:34:12.458Z,15.66
2022-12-23T00:36:39.548Z,15.59
2022-12-23T00:39:11.546Z,15.52
2022-12-23T00:41:38.809Z,15.44
2022-12-23T00:44:05.664Z,15.46
2022-12-23T00:46:32.837Z,15.44
2022-12-23T00:48:59.773Z,15.43
2022-12-23T00:51:27.886Z,15.50
2022-12-23T00:53:55.041Z,15.47
2022-12-23T00:56:21.795Z,15.44
2022-12-23T00:58:48.954Z,15.33
2022-12-23T01:01:15.927Z,15.36
2022-12-23T01:03:42.739Z,15.39
2022-12-23T01:06:09.885Z,15.43
2022-12-23T01:08:38.607Z,15.40
2022-12-23T01:11:08.088Z,15.44
2022-12-23T01:13:35.798Z,15.46
2022-12-23T01:16:04.579Z,15.47
2022-12-23T01:18:31.711Z,15.50
2022-12-23T01:21:02.320Z,15.50
2022-12-23T01:23:29.333Z,15.44
2022-12-23T01:25:59.231Z,15.36
2022-12-23T01:28:28.028Z,15.29
2022-12-23T01:30:54.853Z,15.23
2022-12-23T01:33:21.812Z,15.25
2022-12-23T01:35:48.937Z,15.30
2022-12-23T01:38:16.032Z,15.32
2022-12-23T01:40:45.311Z,15.30
2022-12-23T01:43:17.462Z,15.35
2022-12-23T01:45:44.437Z,15.39
2022-12-23T01:48:17.443Z,15.46
2022-12-23T01:50:51.275Z,15.47
2022-12-23T01:53:25.323Z,15.49
2022-12-23T01:55:59.034Z,15.49
2022-12-23T01:58:33.094Z,15.56
2022-12-23T02:01:01.244Z,15.57
2022-12-23T02:03:57.712Z,15.63
2022-12-23T02:06:28.958Z,15.70
2022-12-23T02:08:55.857Z,15.67
2022-12-23T02:11:50.748Z,15.77
2022-12-23T02:14:38.762Z,15.77
2022-12-23T02:17:18.517Z,15.76
2022-12-23T02:20:29.160Z,15.77
2022-12-23T02:23:37.159Z,15.70
2022-12-23T02:26:33.964Z,15.60
2022-12-23T02:29:37.033Z,15.63
2022-12-23T02:32:15.679Z,15.63
2022-12-23T02:34:52.352Z,15.64
2022-12-23T02:37:25.325Z,15.66
2022-12-23T02:40:02.728Z,15.63
2022-12-23T02:42:36.635Z,15.57
2022-12-23T02:45:13.110Z,15.60
2022-12-23T02:47:46.727Z,15.54
2022-12-23T02:50:20.784Z,15.53
2022-12-23T02:52:50.726Z,15.50
2022-12-23T02:55:24.052Z,15.57
2022-12-23T02:58:01.925Z,15.59
2022-12-23T03:00:30.631Z,15.57
2022-12-23T03:02:59.304Z,15.56
2022-12-23T03:05:30.146Z,15.59
2022-12-23T03:08:02.697Z,15.64
2022-12-23T03:10:41.175Z,15.64
2022-12-23T03:13:21.101Z,15.69
2022-12-23T03:16:05.513Z,15.74
2022-12-23T03:18:51.517Z,15.73
2022-12-23T03:21:30.555Z,15.69
2022-12-23T03:24:11.517Z,15.71
2022-12-23T03:26:48.911Z,15.70
2022-12-23T03:29:26.201Z,15.69
2022-12-23T03:31:57.637Z,15.66
2022-12-23T03:34:34.137Z,15.64
2022-12-23T03:37:05.943Z,15.64
2022-12-23T03:39:40.450Z,15.59
2022-12-23T03:42:16.096Z,15.70
2022-12-23T03:45:19.172Z,15.77
2022-12-23T03:47:43.111Z,15.80
2022-12-23T03:50:16.719Z,15.81
2022-12-23T03:52:51.862Z,15.77
2022-12-23T03:55:26.600Z,15.80
2022-12-23T03:58:07.469Z,15.83
2022-12-23T04:00:44.513Z,15.89
2022-12-23T04:03:21.836Z,15.94
2022-12-23T04:06:01.670Z,15.97
2022-12-23T04:08:34.444Z,16.00
2022-12-23T04:11:03.104Z,16.05
2022-12-23T04:13:30.858Z,16.10
2022-12-23T04:15:58.815Z,16.07
2022-12-23T04:18:26.084Z,15.98
2022-12-23T04:20:54.525Z,16.01
2022-12-23T04:23:21.499Z,15.94
2022-12-23T04:25:48.528Z,15.93
2022-12-23T04:28:16.117Z,15.93
2022-12-23T04:30:42.936Z,15.91
2022-12-23T04:33:11.641Z,15.96
2022-12-23T04:35:38.938Z,15.98
2022-12-23T04:38:07.199Z,15.96
2022-12-23T04:40:34.522Z,15.94
2022-12-23T04:43:01.412Z,15.91
2022-12-23T04:45:28.408Z,15.83
2022-12-23T04:47:55.366Z,15.64
2022-12-23T04:50:22.433Z,15.63
2022-12-23T04:52:49.413Z,15.50
2022-12-23T04:55:17.639Z,15.46
2022-12-23T04:57:44.865Z,15.43
2022-12-23T05:00:13.124Z,15.44
2022-12-23T05:02:40.264Z,15.46
2022-12-23T05:05:08.247Z,15.54
2022-12-23T05:07:35.080Z,15.35
2022-12-23T05:10:02.181Z,15.40
2022-12-23T05:12:31.654Z,15.47
2022-12-23T05:14:58.475Z,15.54
2022-12-23T05:17:25.470Z,15.56
2022-12-23T05:19:52.825Z,15.57
2022-12-23T05:22:19.862Z,15.50
2022-12-23T05:24:50.824Z,15.53
2022-12-23T05:27:17.879Z,15.54
2022-12-23T05:29:46.024Z,15.49
2022-12-23T05:32:13.000Z,15.49
2022-12-23T05:34:39.705Z,15.47
2022-12-23T05:37:06.790Z,15.47
2022-12-23T05:39:33.636Z,15.39
2022-12-23T05:42:00.698Z,15.32
2022-12-23T05:44:27.517Z,15.29
2022-12-23T05:46:55.714Z,15.32
2022-12-23T05:49:22.684Z,15.23
2022-12-23T05:51:49.423Z,15.26
2022-12-23T05:54:16.503Z,15.20
2022-12-23T05:56:43.261Z,15.26
2022-12-23T05:59:10.490Z,15.29
2022-12-23T06:01:37.611Z,15.33
2022-12-23T06:04:06.293Z,15.39
2022-12-23T06:06:33.268Z,15.49
2022-12-23T06:09:00.514Z,15.47
2022-12-23T06:11:27.499Z,15.52
2022-12-23T06:13:54.553Z,15.53
2022-12-23T06:16:21.718Z,15.56
2022-12-23T06:18:48.594Z,15.56
2022-12-23T06:21:17.036Z,15.56
2022-12-23T06:23:43.891Z,15.46
2022-12-23T06:26:10.803Z,15.42
2022-12-23T06:28:37.727Z,15.32
2022-12-23T06:31:04.944Z,15.32
2022-12-23T06:33:31.762Z,15.35
2022-12-23T06:35:58.938Z,15.36
2022-12-23T06:38:27.468Z,15.39
2022-12-23T06:40:54.299Z,15.35
2022-12-23T06:43:21.169Z,15.36
2022-12-23T06:45:49.264Z,15.30
2022-12-23T06:48:17.496Z,15.26
2022-12-23T06:50:44.374Z,15.29
2022-12-23T06:53:11.435Z,15.23
2022-12-23T06:55:39.767Z,15.19
2022-12-23T06:58:06.740Z,15.16
2022-12-23T07:00:33.845Z,15.23
2022-12-23T07:03:01.024Z,15.19
2022-12-23T07:05:34.897Z,15.15
2022-12-23T07:08:03.751Z,15.13
2022-12-23T07:10:30.949Z,15.12
2022-12-23T07:12:59.199Z,15.16
2022-12-23T07:15:26.018Z,15.11
2022-12-23T07:17:54.743Z,15.19
2022-12-23T07:20:21.465Z,15.26
2022-12-23T07:22:48.489Z,15.32
2022-12-23T07:25:15.941Z,15.35
2022-12-23T07:27:43.178Z,15.44
2022-12-23T07:30:12.073Z,15.54
2022-12-23T07:32:39.179Z,15.49
2022-12-23T07:35:06.968Z,15.50
2022-12-23T07:37:34.010Z,15.52
2022-12-23T07:40:06.631Z,15.56
2022-12-23T07:42:50.649Z,15.53
2022-12-23T07:45:18.879Z,15.46
2022-12-23T07:47:45.776Z,15.33
2022-12-23T07:50:13.295Z,15.26
2022-12-23T07:52:40.168Z,15.25
2022-12-23T07:55:07.954Z,15.19
2022-12-23T07:58:00.377Z,15.22
2022-12-23T08:00:28.652Z,15.29
2022-12-23T08:02:55.539Z,15.29
2022-12-23T08:05:22.462Z,15.26
2022-12-23T08:07:52.011Z,15.25
2022-12-23T08:10:18.975Z,15.23
2022-12-23T08:12:45.811Z,15.32
2022-12-23T08:15:12.696Z,15.39
2022-12-23T08:17:41.270Z,15.46
2022-12-23T08:20:09.747Z,15.54
2022-12-23T08:22:36.655Z,15.56
2022-12-23T08:25:04.052Z,15.52
2022-12-23T08:27:30.933Z,15.46
2022-12-23T08:29:57.737Z,15.50
2022-12-23T08:32:27.072Z,15.52
2022-12-23T08:34:57.266Z,15.49
2022-12-23T08:37:24.964Z,15.40
2022-12-23T08:39:51.755Z,15.39
2022-12-23T08:42:20.200Z,15.49
2022-12-23T08:44:46.989Z,15.57
2022-12-23T08:47:13.798Z,15.61
2022-12-23T08:49:40.752Z,15.60
2022-12-23T08:52:08.915Z,15.61
2022-12-23T08:54:35.712Z,15.60
2022-12-23T08:57:02.794Z,15.57
2022-12-23T08:59:29.719Z,15.52
2022-12-23T09:01:56.667Z,15.49
2022-12-23T09:04:23.479Z,15.64
2022-12-23T09:06:50.264Z,15.69
2022-12-23T09:09:18.387Z,15.76
2022-12-23T09:11:45.205Z,15.84
2022-12-23T09:14:12.918Z,15.86
2022-12-23T09:16:40.054Z,15.91
2022-12-23T09:19:07.210Z,15.87
2022-12-23T09:21:34.129Z,15.84
2022-12-23T09:24:00.857Z,15.80
2022-12-23T09:26:31.107Z,15.86
2022-12-23T09:28:58.445Z,15.81
2022-12-23T09:31:30.665Z,15.90
2022-12-23T09:34:03.030Z,15.90
2022-12-23T09:36:29.825Z,15.96
2022-12-23T09:38:58.431Z,15.96
2022-12-23T09:41:46.511Z,15.96
2022-12-23T09:44:38.444Z,15.90
2022-12-23T09:47:12.768Z,15.87
2022-12-23T09:49:48.831Z,15.93
2022-12-23T09:52:24.826Z,15.98
2022-12-23T09:54:55.253Z,15.97
2022-12-23T09:57:36.520Z,16.12
2022-12-23T10:00:13.020Z,16.11
2022-12-23T10:03:13.353Z,16.17
2022-12-23T10:05:51.995Z,16.01
2022-12-23T10:08:29.891Z,15.94
2022-12-23T10:11:01.717Z,15.83
2022-12-23T10:13:37.522Z,15.96
2022-12-23T10:16:12.298Z,16.04
2022-12-23T10:18:50.269Z,16.14
2022-12-23T10:21:26.852Z,16.15
2022-12-23T10:23:55.267Z,16.18
2022-12-23T10:26:28.868Z,16.22
2022-12-23T10:29:08.155Z,16.28
2022-12-23T10:31:48.964Z,16.32
2022-12-23T10:34:23.324Z,16.41
2022-12-23T10:37:00.750Z,16.51
2022-12-23T10:39:36.846Z,16.51
2022-12-23T10:42:18.632Z,16.52
2022-12-23T10:45:12.219Z,16.52
2022-12-23T10:48:14.416Z,16.49
2022-12-23T10:51:00.230Z,16.41
2022-12-23T10:53:37.399Z,16.42
2022-12-23T10:56:06.274Z,16.47
2022-12-23T10:58:38.309Z,16.55
2022-12-23T11:01:14.946Z,16.56
2022-12-23T11:03:56.443Z,16.71
2022-12-23T11:06:25.929Z,16.79
2022-12-23T11:08:56.804Z,16.90
2022-12-23T11:11:23.823Z,16.99
2022-12-23T11:13:50.682Z,17.02
2022-12-23T11:16:25.217Z,17.14
2022-12-23T11:18:56.610Z,17.24
2022-12-23T11:21:23.504Z,17.33
2022-12-23T11:24:15.799Z,17.37
2022-12-23T11:26:44.455Z,17.22
2022-12-23T11:29:21.613Z,17.23
2022-12-23T11:31:51.030Z,17.17
2022-12-23T11:34:21.447Z,17.12
2022-12-23T11:36:58.673Z,17.10
2022-12-23T11:39:32.700Z,16.99
2022-12-23T11:42:07.267Z,17.02
2022-12-23T11:44:40.050Z,17.06
2022-12-23T11:47:28.052Z,17.23
2022-12-23T11:49:57.552Z,17.33
2022-12-23T11:52:26.332Z,17.50
2022-12-23T11:54:56.921Z,17.70
2022-12-23T11:57:37.374Z,17.79
2022-12-23T12:00:17.714Z,17.84
2022-12-23T12:02:50.352Z,17.77
2022-12-23T12:05:22.237Z,17.74
2022-12-23T12:07:51.027Z,17.74
2022-12-23T12:10:25.018Z,17.79
2022-12-23T12:12:59.475Z,17.85
2022-12-23T12:15:42.098Z,17.95
2022-12-23T12:18:15.888Z,17.98
2022-12-23T12:20:46.633Z,18.05
2022-12-23T12:23:21.149Z,18.13
2022-12-23T12:25:55.480Z,18.24
2022-12-23T12:28:29.823Z,18.22
2022-12-23T12:31:05.127Z,18.21
2022-12-23T12:33:41.391Z,18.19
2022-12-23T12:36:18.674Z,18.13
2022-12-23T12:38:48.659Z,18.08
2022-12-23T12:41:22.760Z,18.08
2022-12-23T12:44:04.968Z,18.15
2022-12-23T12:46:40.660Z,18.28
2022-12-23T12:49:19.243Z,18.45
2022-12-23T12:51:54.203Z,18.55
2022-12-23T12:54:30.057Z,18.64
2022-12-23T12:56:59.082Z,18.63
2022-12-23T12:59:28.796Z,18.64
2022-12-23T13:02:34.250Z,18.76
2022-12-23T13:05:32.435Z,18.83
2022-12-23T13:08:29.861Z,18.97
2022-12-23T13:11:05.671Z,19.11
2022-12-23T13:13:48.590Z,19.25
2022-12-23T13:16:29.591Z,19.19
2022-12-23T13:19:04.209Z,19.12
2022-12-23T13:21:42.860Z,19.07
2022-12-23T13:24:22.904Z,18.96
2022-12-23T13:27:03.179Z,18.77
2022-12-23T13:30:06.516Z,18.53
2022-12-23T13:33:02.212Z,18.35
2022-12-23T13:35:48.455Z,18.09
2022-12-23T13:38:44.987Z,17.82
2022-12-23T13:41:25.789Z,17.60
2022-12-23T13:43:58.245Z,17.45
2022-12-23T13:46:38.668Z,17.44
2022-12-23T13:49:16.983Z,17.37
2022-12-23T13:51:53.090Z,17.14
2022-12-23T13:54:38.835Z,17.06
2022-12-23T13:57:25.348Z,17.06
2022-12-23T14:00:08.955Z,17.03
2022-12-23T14:02:51.733Z,17.12
2022-12-23T14:05:33.975Z,17.19
2022-12-23T14:08:05.355Z,17.27
2022-12-23T14:10:35.485Z,17.36
2022-12-23T14:13:07.208Z,17.43
2022-12-23T14:16:00.619Z,17.54
2022-12-23T14:19:05.148Z,17.57
2022-12-23T14:21:46.619Z,17.55
2022-12-23T14:24:46.998Z,17.54
2022-12-23T14:27:55.298Z,17.53
2022-12-23T14:30:32.814Z,17.50
2022-12-23T14:33:03.328Z,17.53
2022-12-23T14:35:54.423Z,17.57
2022-12-23T14:38:32.311Z,17.53
2022-12-23T14:41:19.471Z,17.50
2022-12-23T14:43:57.680Z,17.40
2022-12-23T14:46:58.224Z,17.37
2022-12-23T14:49:46.129Z,17.24
2022-12-23T14:52:59.387Z,17.14
2022-12-23T14:55:44.768Z,17.13
2022-12-23T14:59:15.347Z,17.09
2022-12-23T15:01:47.786Z,17.06
2022-12-23T15:04:21.791Z,17.16
2022-12-23T15:06:54.346Z,17.22
2022-12-23T15:09:26.633Z,17.24
2022-12-23T15:11:55.711Z,17.20
2022-12-23T15:14:34.319Z,17.23
2022-12-23T15:17:26.157Z,17.33
2022-12-23T15:19:54.351Z,17.24
2022-12-23T15:22:30.183Z,17.22
2022-12-23T15:24:59.241Z,17.17
2022-12-23T15:27:29.828Z,17.13
2022-12-23T15:29:59.655Z,17.09
2022-12-23T15:32:28.459Z,17.12
2022-12-23T15:35:03.526Z,17.13
2022-12-23T15:37:31.898Z,17.13
2022-12-23T15:40:09.639Z,17.09
2022-12-23T15:42:46.111Z,17.06
2022-12-23T15:45:34.292Z,17.03
2022-12-23T15:48:02.175Z,16.94
2022-12-23T15:50:30.672Z,16.96
2022-12-23T15:53:06.093Z,16.96
2022-12-23T15:55:36.360Z,16.97
2022-12-23T15:58:04.778Z,16.97
2022-12-23T16:00:39.444Z,17.04
2022-12-23T16:03:22.838Z,17.06
2022-12-23T16:05:49.817Z,16.96
2022-12-23T16:08:29.575Z,17.03
2022-12-23T16:11:11.597Z,17.03
2022-12-23T16:13:43.083Z,17.00
2022-12-23T16:16:29.822Z,16.93
2022-12-23T16:18:57.634Z,16.83
2022-12-23T16:21:29.246Z,16.86
2022-12-23T16:23:56.942Z,16.85
2022-12-23T16:26:24.102Z,16.92
2022-12-23T16:28:55.185Z,16.96
2022-12-23T16:31:24.405Z,16.96
2022-12-23T16:33:54.257Z,16.99
2022-12-23T16:36:32.867Z,17.06
2022-12-23T16:39:13.150Z,17.04
2022-12-23T16:41:40.158Z,17.04
2022-12-23T16:44:06.936Z,17.09
2022-12-23T16:46:39.733Z,17.09
2022-12-23T16:49:11.896Z,17.10
2022-12-23T16:51:40.746Z,17.07
2022-12-23T16:54:14.303Z,17.10
2022-12-23T16:56:41.799Z,17.03
2022-12-23T16:59:10.019Z,16.99
2022-12-23T17:01:42.154Z,16.97
2022-12-23T17:04:09.245Z,16.96
2022-12-23T17:06:38.260Z,16.94
2022-12-23T17:09:05.892Z,16.93
2022-12-23T17:11:39.853Z,16.97
2022-12-23T17:14:16.975Z,16.97
2022-12-23T17:16:46.786Z,16.93
2022-12-23T17:19:13.942Z,16.92
2022-12-23T17:21:44.311Z,16.90
2022-12-23T17:24:16.493Z,16.89
2022-12-23T17:26:43.310Z,16.79
2022-12-23T17:29:12.261Z,16.76
2022-12-23T17:31:41.141Z,16.80
2022-12-23T17:34:16.068Z,16.82
2022-12-23T17:36:49.627Z,16.80
2022-12-23T17:39:17.552Z,16.82
2022-12-23T17:41:44.531Z,16.82
2022-12-23T17:44:15.352Z,16.82
2022-12-23T17:46:42.641Z,16.77
2022-12-23T17:49:11.317Z,16.80
2022-12-23T17:51:40.207Z,16.77
2022-12-23T17:54:07.162Z,16.71
2022-12-23T17:56:34.216Z,16.63
2022-12-23T17:59:01.067Z,16.52
2022-12-23T18:01:31.404Z,16.48
2022-12-23T18:04:00.228Z,16.41
2022-12-23T18:06:29.201Z,16.35
2022-12-23T18:08:56.753Z,16.28
2022-12-23T18:11:32.295Z,16.25
2022-12-23T18:14:01.197Z,16.17
2022-12-23T18:16:28.460Z,16.10
2022-12-23T18:18:56.580Z,15.98
2022-12-23T18:21:26.913Z,15.90
2022-12-23T18:23:59.689Z,15.84
2022-12-23T18:26:26.680Z,15.80
2022-12-23T18:28:54.621Z,15.79
2022-12-23T18:31:24.019Z,15.84
2022-12-23T18:33:51.688Z,15.86
2022-12-23T18:36:25.908Z,15.94
2022-12-23T18:38:55.059Z,15.93
2022-12-23T18:41:23.494Z,15.96
2022-12-23T18:43:51.476Z,15.93
2022-12-23T18:46:18.613Z,15.89
2022-12-23T18:48:46.016Z,15.90
2022-12-23T18:51:18.850Z,15.90
2022-12-23T18:53:46.459Z,15.86
2022-12-23T18:56:16.253Z,15.83
2022-12-23T18:58:43.444Z,15.79
2022-12-23T19:01:12.231Z,15.77
2022-12-23T19:03:39.841Z,15.74
2022-12-23T19:06:09.789Z,15.70
2022-12-23T19:08:37.934Z,15.67
2022-12-23T19:11:11.183Z,15.66
2022-12-23T19:13:39.783Z,15.56
2022-12-23T19:16:07.647Z,15.47
2022-12-23T19:18:35.014Z,15.36
2022-12-23T19:21:04.748Z,15.33
2022-12-23T19:23:31.877Z,15.30
2022-12-23T19:25:58.821Z,15.26
2022-12-23T19:28:25.693Z,15.29
2022-12-23T19:30:54.193Z,15.35
2022-12-23T19:33:20.939Z,15.38
2022-12-23T19:35:47.974Z,15.38
2022-12-23T19:38:15.261Z,15.38
2022-12-23T19:40:42.081Z,15.33
2022-12-23T19:43:09.248Z,15.33
2022-12-23T19:45:36.168Z,15.33
2022-12-23T19:48:05.346Z,15.38
2022-12-23T19:50:32.131Z,15.33
2022-12-23T19:52:58.993Z,15.38
2022-12-23T19:55:25.783Z,15.40
2022-12-23T19:57:55.495Z,15.46
2022-12-23T20:00:22.670Z,15.43
2022-12-23T20:02:55.129Z,15.39
2022-12-23T20:05:26.782Z,15.26
2022-12-23T20:07:53.817Z,15.22
2022-12-23T20:10:20.731Z,15.16
2022-12-23T20:12:47.774Z,15.09
2022-12-23T20:15:14.631Z,15.03
2022-12-23T20:17:41.392Z,14.93
2022-12-23T20:20:09.733Z,14.85
2022-12-23T20:22:38.050Z,14.72
2022-12-23T20:25:06.255Z,14.65
2022-12-23T20:27:33.521Z,14.51
2022-12-23T20:30:00.544Z,14.42
2022-12-23T20:32:27.779Z,14.29
2022-12-23T20:34:54.649Z,14.21
2022-12-23T20:37:21.503Z,14.17
2022-12-23T20:39:50.176Z,14.16
2022-12-23T20:42:17.090Z,14.17
2022-12-23T20:44:43.847Z,14.17
2022-12-23T20:47:10.922Z,14.17
2022-12-23T20:49:38.296Z,14.10
2022-12-23T20:52:05.353Z,14.10
2022-12-23T20:54:33.984Z,14.14
2022-12-23T20:57:03.267Z,14.17
2022-12-23T20:59:30.462Z,14.13
2022-12-23T21:01:57.375Z,14.19
2022-12-23T21:04:24.623Z,14.19
2022-12-23T21:06:51.716Z,14.20
2022-12-23T21:09:18.560Z,14.14
2022-12-23T21:11:48.631Z,14.14
2022-12-23T21:14:16.844Z,14.17
2022-12-23T21:16:44.270Z,14.14
2022-12-23T21:19:17.443Z,14.17
2022-12-23T21:21:45.031Z,14.21
2022-12-23T21:24:12.053Z,14.27
2022-12-23T21:26:40.375Z,14.30
2022-12-23T21:29:10.586Z,14.34
2022-12-23T21:31:40.920Z,14.40
2022-12-23T21:34:09.154Z,14.38
2022-12-23T21:36:38.436Z,14.36
2022-12-23T21:39:06.795Z,14.38
2022-12-23T21:41:38.078Z,14.44
2022-12-23T21:44:05.668Z,14.48
2022-12-23T21:46:33.014Z,14.51
2022-12-23T21:49:02.002Z,14.50
2022-12-23T21:51:39.522Z,14.51
2022-12-23T21:54:09.686Z,14.50
2022-12-23T21:56:37.162Z,14.50
2022-12-23T21:59:08.399Z,14.47
2022-12-23T22:01:35.487Z,14.47
2022-12-23T22:04:04.262Z,14.47
2022-12-23T22:06:34.158Z,14.44
2022-12-23T22:09:02.456Z,14.45
2022-12-23T22:11:32.514Z,14.50
2022-12-23T22:14:00.963Z,14.48
2022-12-23T22:16:30.089Z,14.50
2022-12-23T22:18:59.251Z,14.54
2022-12-23T22:21:30.661Z,14.60
2022-12-23T22:23:58.482Z,14.58
2022-12-23T22:26:28.004Z,14.60
2022-12-23T22:28:57.869Z,14.65
2022-12-23T22:31:33.951Z,14.68
2022-12-23T22:34:01.527Z,14.70
2022-12-23T22:36:30.481Z,14.74
2022-12-23T22:39:00.595Z,14.78
2022-12-23T22:41:29.675Z,14.84
2022-12-23T22:43:57.615Z,14.82
2022-12-23T22:46:26.120Z,14.78
2022-12-23T22:48:53.842Z,14.74
2022-12-23T22:51:24.731Z,14.78
2022-12-23T22:53:53.294Z,14.78
2022-12-23T22:56:22.017Z,14.75
2022-12-23T22:58:49.972Z,14.75
2022-12-23T23:01:22.360Z,14.78
2022-12-23T23:03:50.045Z,14.75
2022-12-23T23:06:18.682Z,14.78
2022-12-23T23:08:45.617Z,14.79
2022-12-23T23:11:14.161Z,14.81
2022-12-23T23:13:40.994Z,14.81
2022-12-23T23:16:08.234Z,14.82
2022-12-23T23:18:35.237Z,14.87
2022-12-23T23:21:01.987Z,14.87
2022-12-23T23:23:28.799Z,14.87
2022-12-23T23:25:55.647Z,14.88
2022-12-23T23:28:23.956Z,14.91
2022-12-23T23:31:03.801Z,14.89
2022-12-23T23:33:38.411Z,14.91
2022-12-23T23:36:06.608Z,14.91
2022-12-23T23:38:33.490Z,14.84
2022-12-23T23:41:00.278Z,14.77
2022-12-23T23:43:28.440Z,14.72
2022-12-23T23:45:55.453Z,14.65
2022-12-23T23:48:22.346Z,14.64
2022-12-23T23:50:49.097Z,14.65
2022-12-23T23:53:16.509Z,14.68
2022-12-23T23:55:43.788Z,14.72
2022-12-23T23:58:11.931Z,14.72
